createdAt,value
2018-11-25T00:03:15.308Z,79.89
2018-11-25T00:08:18.526Z,80.65
2018-11-25T00:13:21.720Z,81.32
2018-11-25T00:18:24.919Z,81.98
2018-11-25T00:23:28.108Z,80.52
2018-11-25T00:28:31.295Z,81.50
2018-11-25T00:33:34.486Z,82.17
2018-11-25T00:38:37.692Z,82.05
2018-11-25T00:43:40.921Z,82.32
2018-11-25T00:48:44.095Z,81.39
2018-11-25T00:53:47.290Z,80.99
2018-11-25T00:58:50.607Z,82.31
2018-11-25T01:03:53.796Z,83.06
2018-11-25T01:08:56.997Z,83.71
2018-11-25T01:14:00.191Z,84.51
2018-11-25T01:19:03.392Z,83.85
2018-11-25T01:24:06.560Z,84.06
2018-11-25T01:29:09.724Z,82.73
2018-11-25T01:34:12.875Z,82.42
2018-11-25T01:39:16.060Z,82.74
2018-11-25T01:44:19.252Z,81.56
2018-11-25T01:49:22.687Z,82.02
2018-11-25T01:54:25.680Z,82.08
2018-11-25T01:59:28.908Z,82.10
2018-11-25T02:04:32.100Z,82.23
2018-11-25T02:09:35.311Z,82.77
2018-11-25T02:14:38.494Z,82.48
2018-11-25T02:19:41.698Z,82.09
2018-11-25T02:24:44.888Z,81.87
2018-11-25T02:29:48.088Z,81.33
2018-11-25T02:34:51.260Z,81.72
2018-11-25T02:39:54.420Z,81.03
2018-11-25T02:44:57.603Z,81.12
2018-11-25T02:50:00.772Z,80.76
2018-11-25T02:55:04.319Z,82.15
2018-11-25T03:00:07.451Z,82.31
2018-11-25T03:05:10.628Z,83.17
2018-11-25T03:10:13.880Z,82.94
2018-11-25T03:15:17.811Z,82.48
2018-11-25T03:20:21.036Z,80.85
2018-11-25T03:25:24.222Z,81.50
2018-11-25T03:30:27.408Z,83.33
2018-11-25T03:35:30.585Z,84.13
2018-11-25T03:40:33.984Z,84.94
2018-11-25T03:45:37.112Z,84.39
2018-11-25T03:50:40.290Z,85.48
2018-11-25T03:55:43.538Z,85.07
2018-11-25T04:00:46.736Z,85.12
2018-11-25T04:05:49.900Z,85.63
2018-11-25T04:10:53.491Z,83.88
2018-11-25T04:15:56.691Z,83.60
2018-11-25T04:20:59.828Z,84.01
2018-11-25T04:26:02.988Z,83.19
2018-11-25T04:31:06.580Z,81.83
2018-11-25T04:36:09.751Z,83.93
2018-11-25T04:41:12.920Z,84.41
2018-11-25T04:46:16.096Z,84.91
2018-11-25T04:51:19.216Z,85.46
2018-11-25T04:56:22.455Z,84.96
2018-11-25T05:01:25.608Z,84.25
2018-11-25T05:06:28.777Z,84.42
2018-11-25T05:11:31.951Z,84.10
2018-11-25T05:16:35.222Z,82.95
2018-11-25T05:21:38.370Z,81.88
2018-11-25T05:26:41.632Z,81.09
2018-11-25T05:31:44.776Z,81.75
2018-11-25T05:36:47.939Z,82.04
2018-11-25T05:41:51.075Z,81.22
2018-11-25T05:46:54.257Z,82.22
2018-11-25T05:51:57.403Z,81.94
2018-11-25T05:57:00.556Z,82.76
2018-11-25T06:02:03.891Z,83.28
2018-11-25T06:07:07.156Z,83.54
2018-11-25T06:12:10.351Z,84.19
2018-11-25T06:17:13.553Z,83.18
2018-11-25T06:22:16.740Z,81.30
2018-11-25T06:27:19.951Z,81.32
2018-11-25T06:32:23.184Z,81.16
2018-11-25T06:37:26.329Z,81.34
2018-11-25T06:42:29.500Z,81.84
2018-11-25T06:47:32.686Z,81.59
2018-11-25T06:52:36.015Z,80.79
2018-11-25T06:57:39.173Z,80.15
2018-11-25T07:02:42.340Z,80.61
2018-11-25T07:07:45.577Z,80.68
2018-11-25T07:12:53.329Z,81.06
2018-11-25T07:17:56.567Z,82.00
2018-11-25T07:22:59.748Z,83.03
2018-11-25T07:28:17.965Z,82.71
2018-11-25T07:33:06.204Z,81.39
2018-11-25T07:38:09.413Z,80.73
2018-11-25T07:43:12.640Z,79.83
2018-11-25T07:48:15.796Z,79.25
2018-11-25T07:53:19.019Z,78.33
2018-11-25T07:58:22.309Z,78.46
2018-11-25T08:03:26.222Z,75.06
2018-11-25T08:08:29.976Z,72.10
2018-11-25T08:13:33.309Z,72.31
2018-11-25T08:18:36.520Z,73.19
2018-11-25T08:23:39.723Z,71.42
2018-11-25T08:28:42.932Z,71.07
2018-11-25T08:33:46.092Z,71.25
2018-11-25T08:38:49.288Z,70.17
2018-11-25T08:43:52.496Z,68.66
2018-11-25T08:48:55.675Z,69.84
2018-11-25T08:53:58.961Z,69.34
2018-11-25T08:59:02.194Z,69.48
2018-11-25T09:04:05.561Z,69.53
2018-11-25T09:09:09.064Z,71.82
2018-11-25T09:14:12.331Z,71.53
2018-11-25T09:19:15.669Z,71.24
2018-11-25T09:24:18.948Z,70.13
2018-11-25T09:29:22.267Z,71.41
2018-11-25T09:34:25.608Z,70.03
2018-11-25T09:39:29.439Z,69.34
2018-11-25T09:44:32.653Z,68.61
2018-11-25T09:49:35.948Z,68.04
2018-11-25T09:54:39.231Z,68.49
2018-11-25T09:59:42.453Z,68.03
2018-11-25T10:04:45.772Z,67.74
2018-11-25T10:09:48.973Z,67.71
2018-11-25T10:14:53.127Z,66.66
2018-11-25T10:19:56.875Z,66.75
2018-11-25T10:25:00.154Z,66.38
2018-11-25T10:30:03.906Z,66.57
2018-11-25T10:35:08.728Z,65.38
2018-11-25T10:40:16.359Z,65.41
2018-11-25T10:45:22.338Z,65.59
2018-11-25T10:50:25.676Z,65.75
2018-11-25T10:55:29.431Z,66.21
2018-11-25T11:00:40.719Z,66.78
2018-11-25T11:05:49.644Z,66.68
2018-11-25T11:10:52.911Z,65.80
2018-11-25T11:15:56.154Z,65.46
2018-11-25T11:20:59.448Z,63.96
2018-11-25T11:26:07.084Z,62.85
2018-11-25T11:31:13.192Z,63.40
2018-11-25T11:36:09.389Z,62.18
2018-11-25T11:41:12.680Z,62.28
2018-11-25T11:46:15.935Z,62.81
2018-11-25T11:51:25.596Z,63.08
2018-11-25T11:56:22.492Z,62.60
2018-11-25T12:01:25.830Z,62.37
2018-11-25T12:06:29.156Z,61.10
2018-11-25T12:11:32.449Z,61.66
2018-11-25T12:16:35.751Z,61.58
2018-11-25T12:21:38.998Z,61.84
2018-11-25T12:26:42.361Z,61.31
2018-11-25T12:31:45.804Z,59.86
2018-11-25T12:36:49.086Z,60.63
2018-11-25T12:41:52.345Z,60.64
2018-11-25T12:46:55.555Z,61.17
2018-11-25T12:51:58.868Z,61.09
2018-11-25T12:57:02.165Z,60.58
2018-11-25T13:02:05.712Z,60.32
2018-11-25T13:07:08.994Z,60.30
2018-11-25T13:12:12.285Z,60.07
2018-11-25T13:17:15.611Z,61.00
2018-11-25T13:22:18.933Z,61.55
2018-11-25T13:27:22.275Z,61.02
2018-11-25T13:32:25.548Z,60.79
2018-11-25T13:37:28.769Z,63.47
2018-11-25T13:42:32.059Z,62.71
2018-11-25T13:47:35.264Z,64.54
2018-11-25T13:52:38.683Z,66.43
2018-11-25T13:57:41.966Z,67.30
2018-11-25T14:02:45.203Z,68.29
2018-11-25T14:07:48.568Z,68.06
2018-11-25T14:12:51.813Z,68.39
2018-11-25T14:17:55.098Z,69.05
2018-11-25T14:22:58.424Z,70.92
2018-11-25T14:28:06.813Z,71.90
2018-11-25T14:33:10.123Z,72.96
2018-11-25T14:38:13.429Z,73.28
2018-11-25T14:43:16.815Z,73.24
2018-11-25T14:48:20.039Z,74.20
2018-11-25T14:53:23.353Z,75.29
2018-11-25T14:58:26.589Z,75.25
2018-11-25T15:03:30.053Z,75.09
2018-11-25T15:08:33.479Z,74.85
2018-11-25T15:13:36.707Z,76.43
2018-11-25T15:18:40.061Z,75.85
2018-11-25T15:23:43.619Z,75.29
2018-11-25T15:28:46.877Z,75.20
2018-11-25T15:33:50.132Z,74.92
2018-11-25T15:38:53.424Z,74.52
2018-11-25T15:43:56.710Z,75.90
2018-11-25T15:48:59.980Z,75.52
2018-11-25T15:54:03.202Z,76.58
2018-11-25T15:59:07.482Z,77.12
2018-11-25T16:04:10.833Z,76.40
2018-11-25T16:09:14.133Z,76.94
2018-11-25T16:14:17.696Z,76.20
2018-11-25T16:19:21.065Z,76.09
2018-11-25T16:24:24.355Z,76.01
2018-11-25T16:29:28.326Z,76.99
2018-11-25T16:34:31.677Z,75.97
2018-11-25T16:39:35.055Z,76.26
2018-11-25T16:44:38.424Z,76.18
2018-11-25T16:49:41.797Z,76.08
2018-11-25T16:54:45.148Z,75.61
2018-11-25T16:59:48.458Z,75.18
2018-11-25T17:04:51.824Z,74.95
2018-11-25T17:09:55.170Z,75.84
2018-11-25T17:14:58.757Z,75.71
2018-11-25T17:20:02.136Z,75.52
2018-11-25T17:25:08.281Z,75.08
2018-11-25T17:30:15.778Z,75.62
2018-11-25T17:35:24.350Z,75.48
2018-11-25T17:40:27.700Z,74.25
2018-11-25T17:45:31.271Z,74.76
2018-11-25T17:50:34.632Z,76.01
2018-11-25T17:55:38.000Z,75.41
2018-11-25T18:00:46.964Z,75.67
2018-11-25T18:05:50.305Z,76.49
2018-11-25T18:10:53.720Z,75.60
2018-11-25T18:15:59.856Z,75.69
2018-11-25T18:21:06.486Z,75.14
2018-11-25T18:26:09.807Z,75.61
2018-11-25T18:31:13.526Z,75.29
2018-11-25T18:36:16.791Z,74.59
2018-11-25T18:41:20.237Z,74.53
2018-11-25T18:46:23.616Z,74.51
2018-11-25T18:51:26.879Z,75.23
2018-11-25T18:56:30.182Z,74.55
2018-11-25T19:01:57.343Z,74.09
2018-11-25T19:07:00.844Z,74.47
2018-11-25T19:12:04.609Z,74.86
2018-11-25T19:17:08.045Z,73.44
2018-11-25T19:22:11.390Z,75.09
2018-11-25T19:27:14.700Z,74.92
2018-11-25T19:32:18.032Z,74.98
2018-11-25T19:37:21.339Z,74.57
2018-11-25T19:42:24.611Z,74.80
2018-11-25T19:47:28.022Z,75.68
2018-11-25T19:52:31.353Z,74.02
2018-11-25T19:57:34.847Z,75.54
2018-11-25T20:02:38.325Z,75.53
2018-11-25T20:07:42.756Z,74.21
2018-11-25T20:12:47.986Z,74.69
2018-11-25T20:21:30.137Z,74.26
2018-11-25T20:26:33.487Z,75.08
2018-11-25T20:31:36.755Z,73.76
2018-11-25T20:36:40.059Z,73.43
2018-11-25T20:41:43.357Z,74.15
2018-11-25T20:46:52.483Z,75.31
2018-11-25T20:52:01.422Z,74.32
2018-11-25T20:57:05.132Z,74.17
2018-11-25T21:02:08.432Z,74.02
2018-11-25T21:07:11.671Z,74.04
2018-11-25T21:12:15.053Z,74.44
2018-11-25T21:17:18.395Z,74.99
2018-11-25T21:22:21.731Z,74.10
2018-11-25T21:27:25.070Z,74.48
2018-11-25T21:32:28.303Z,75.82
2018-11-25T21:37:31.579Z,75.65
2018-11-25T21:42:34.801Z,75.89
2018-11-25T21:47:38.097Z,74.92
2018-11-25T21:52:41.325Z,75.86
2018-11-25T21:57:44.529Z,75.65
2018-11-25T22:02:47.836Z,74.56
2018-11-25T22:07:51.077Z,74.57
2018-11-25T22:12:54.345Z,75.15
2018-11-25T22:17:57.568Z,76.00
2018-11-25T22:23:00.845Z,76.13
2018-11-25T22:28:04.206Z,76.92
2018-11-25T22:33:07.447Z,76.08
2018-11-25T22:38:10.720Z,76.43
2018-11-25T22:43:13.927Z,76.72
2018-11-25T22:48:17.655Z,76.92
2018-11-25T22:53:20.859Z,76.38
2018-11-25T22:58:24.092Z,75.87
2018-11-25T23:03:27.357Z,76.42
2018-11-25T23:08:30.617Z,76.91
2018-11-25T23:13:33.835Z,77.17
2018-11-25T23:18:37.087Z,76.90
2018-11-25T23:23:40.254Z,77.36
2018-11-25T23:28:43.500Z,78.22
2018-11-25T23:33:46.675Z,78.59
2018-11-25T23:38:49.871Z,78.98
2018-11-25T23:43:53.112Z,79.82
2018-11-25T23:48:56.301Z,80.77
2018-11-25T23:53:59.525Z,80.46
2018-11-25T23:59:02.760Z,80.77
